Time;durP1;ratioP1;P1;durP2;ratioP2;P2;SDS_P1;SDS_P2;PMS_P1;PMS_P2;Temp;Humidity;BMP_temperature;BMP_pressure;BME280_temperature;BME280_humidity;BME280_pressure;Samples;Min_cycle;Max_cycle;Signal;HPM_P1;HPM_P2
2024/03/15 00:00:41;;;;;;;42.92;25.08;;;281.80;2278.40;;;;;;5060647;28;20083;-75
2024/03/15 00:03:07;;;;;;;47.40;27.20;;;281.80;2278.40;;;;;;5071001;28;20048;-76
2024/03/15 00:05:33;;;;;;;41.63;25.85;;;281.80;2278.40;;;;;;5061418;28;20025;-76
2024/03/15 00:07:59;;;;;;;39.33;24.38;;;281.80;2278.40;;;;;;5068771;28;20555;-75
2024/03/15 00:10:25;;;;;;;42.08;26.73;;;281.80;2278.40;;;;;;5067085;28;20021;-74
2024/03/15 00:12:51;;;;;;;45.00;26.20;;;281.80;2278.40;;;;;;5062815;28;20025;-75
2024/03/15 00:15:18;;;;;;;44.40;26.63;;;281.80;2278.40;;;;;;5049788;28;20036;-75
2024/03/15 00:17:44;;;;;;;41.25;24.08;;;281.70;2278.40;;;;;;5044268;28;20067;-75
2024/03/15 00:20:11;;;;;;;45.17;26.27;;;281.70;2278.40;;;;;;5064886;28;20040;-79
2024/03/15 00:22:37;;;;;;;43.83;24.10;;;281.60;2278.40;;;;;;5066567;28;20024;-75
2024/03/15 00:25:04;;;;;;;38.78;23.58;;;281.60;2278.40;;;;;;5063904;28;20099;-74
2024/03/15 00:27:29;;;;;;;39.70;25.38;;;281.60;2278.40;;;;;;5054362;28;20079;-75
2024/03/15 00:29:55;;;;;;;43.70;26.10;;;281.60;2278.40;;;;;;5036438;28;20025;-76
2024/03/15 00:32:25;;;;;;;38.65;25.48;;;281.60;2278.40;;;;;;5041316;28;20492;-75
2024/03/15 00:34:51;;;;;;;41.15;24.60;;;256.90;2252.80;;;;;;5052572;28;20114;-75
2024/03/15 00:37:17;;;;;;;41.83;24.27;;;256.90;2252.80;;;;;;5053812;28;20025;-75
2024/03/15 00:39:44;;;;;;;41.03;24.98;;;256.90;2252.80;;;;;;5053863;28;20033;-75
2024/03/15 00:42:10;;;;;;;40.97;25.00;;;256.90;2252.80;;;;;;5053973;28;20099;-75
2024/03/15 00:44:35;;;;;;;40.55;24.02;;;256.80;2252.80;;;;;;5053961;28;20052;-75
2024/03/15 00:47:02;;;;;;;36.60;23.13;;;256.70;2252.80;;;;;;5052643;28;20051;-75
2024/03/15 00:49:28;;;;;;;38.90;23.02;;;256.60;2252.80;;;;;;5052415;28;20474;-76
2024/03/15 00:51:54;;;;;;;43.60;24.00;;;256.50;2252.80;;;;;;5053531;28;20032;-77
2024/03/15 00:54:22;;;;;;;41.47;25.15;;;256.60;2252.80;;;;;;5051950;28;20497;-75
2024/03/15 00:56:48;;;;;;;47.90;26.73;;;256.60;2252.80;;;;;;5053689;28;20021;-76
2024/03/15 00:59:14;;;;;;;42.65;23.85;;;256.70;2252.80;;;;;;5052170;28;20378;-76
2024/03/15 01:01:39;;;;;;;;;;;256.70;2252.80;;;;;;5054101;28;20432;-76
2024/03/15 01:04:05;;;;;;;44.08;23.33;;;256.60;2252.80;;;;;;5053460;28;19905;-75
2024/03/15 01:06:31;;;;;;;39.97;24.02;;;256.60;2252.80;;;;;;5051861;28;20021;-75
2024/03/15 01:08:57;;;;;;;36.67;22.98;;;256.60;2252.80;;;;;;5053056;28;20032;-76
2024/03/15 01:11:23;;;;;;;44.20;25.02;;;256.70;2252.80;;;;;;5053566;28;20021;-78
2024/03/15 01:13:55;;;;;;;41.80;24.83;;;256.80;2252.80;;;;;;5051363;28;20029;-75
2024/03/15 01:16:21;;;;;;;41.55;22.60;;;256.80;2252.80;;;;;;5051911;28;20024;-75
2024/03/15 01:18:46;;;;;;;39.20;24.90;;;256.90;2252.80;;;;;;5053115;28;20398;-76
2024/03/15 01:21:12;;;;;;;36.10;22.90;;;256.90;2252.80;;;;;;5053226;28;20029;-75
2024/03/15 01:23:38;;;;;;;39.60;24.70;;;256.80;2252.80;;;;;;5053086;28;20596;-75
2024/03/15 01:26:04;;;;;;;;;;;256.70;2252.80;;;;;;5054049;28;20488;-78
2024/03/15 01:28:30;;;;;;;39.42;22.15;;;256.70;2252.80;;;;;;5053006;28;19905;-75
2024/03/15 01:30:57;;;;;;;;;;;256.70;2252.80;;;;;;5053687;28;20013;-78
2024/03/15 01:33:23;;;;;;;39.65;22.63;;;256.70;2252.80;;;;;;5067255;28;19979;-75
2024/03/15 01:35:50;;;;;;;39.50;22.40;;;256.70;2252.80;;;;;;5052715;28;20087;-75
2024/03/15 01:38:16;;;;;;;37.42;23.25;;;256.60;2252.80;;;;;;5043542;28;20037;-76
2024/03/15 01:40:42;;;;;;;40.28;23.20;;;256.60;2252.80;;;;;;5052889;28;20429;-77
2024/03/15 01:43:11;;;;;;;38.15;22.70;;;256.60;2252.80;;;;;;5052994;28;20095;-75
2024/03/15 01:45:37;;;;;;;39.22;24.20;;;256.80;2252.80;;;;;;5053246;28;20029;-76
2024/03/15 01:48:03;;;;;;;39.67;22.45;;;256.90;2252.80;;;;;;5052728;28;20383;-75
2024/03/15 01:50:31;;;;;;;38.08;23.88;;;256.90;2252.80;;;;;;5051545;28;20020;-78
2024/03/15 01:52:58;;;;;;;39.70;23.42;;;256.90;2252.80;;;;;;5052765;28;20045;-74
2024/03/15 01:55:24;;;;;;;38.45;24.90;;;256.90;2252.80;;;;;;5051881;28;20485;-76
2024/03/15 01:57:50;;;;;;;38.67;23.02;;;256.90;2252.80;;;;;;5052607;28;20063;-75
2024/03/15 02:00:16;;;;;;;37.45;24.13;;;256.80;2252.80;;;;;;5052980;28;20220;-75
2024/03/15 02:02:43;;;;;;;34.10;22.17;;;256.70;2252.80;;;;;;5045599;28;20490;-78
2024/03/15 02:05:13;;;;;;;37.90;23.58;;;256.90;2252.80;;;;;;5039292;28;20056;-79
2024/03/15 02:07:39;;;;;;;37.42;24.05;;;256.70;2252.80;;;;;;5051130;28;20124;-75
2024/03/15 02:10:15;;;;;;;39.22;24.38;;;256.70;2252.80;;;;;;5052627;28;20108;-75
2024/03/15 02:12:41;;;;;;;28.50;17.90;;;256.80;2252.80;;;;;;5051436;28;20051;-78
2024/03/15 02:15:07;;;;;;;40.28;24.17;;;256.80;2252.80;;;;;;5052662;28;20108;-75
2024/03/15 02:17:36;;;;;;;44.63;23.40;;;256.70;2252.80;;;;;;5051297;28;20020;-76
2024/03/15 02:20:06;;;;;;;42.88;25.13;;;256.60;2252.80;;;;;;5052528;28;20029;-75
2024/03/15 02:22:32;;;;;;;37.63;23.30;;;256.80;2252.80;;;;;;5051238;28;20020;-75
2024/03/15 02:24:58;;;;;;;38.63;24.02;;;256.90;2252.80;;;;;;5038416;28;20112;-76
2024/03/15 02:27:24;;;;;;;41.08;25.13;;;256.80;2252.80;;;;;;5048487;28;20129;-76
2024/03/15 02:29:52;;;;;;;38.28;24.98;;;256.70;2252.80;;;;;;5056200;28;20044;-76
2024/03/15 02:32:18;;;;;;;42.78;24.60;;;256.80;2252.80;;;;;;5056380;28;20486;-76
2024/03/15 02:34:44;;;;;;;41.58;24.25;;;256.80;2252.80;;;;;;5056220;28;20021;-75
2024/03/15 02:37:10;;;;;;;38.75;22.52;;;256.80;2252.80;;;;;;5054693;28;20032;-75
2024/03/15 02:39:36;;;;;;;42.28;24.92;;;256.70;2252.80;;;;;;5055663;28;20033;-77
2024/03/15 02:42:03;;;;;;;43.78;26.70;;;256.60;2252.80;;;;;;5056154;28;20044;-75
2024/03/15 02:44:30;;;;;;;43.80;25.83;;;256.60;2252.80;;;;;;5055959;28;20025;-75
2024/03/15 02:46:56;;;;;;;38.53;24.23;;;256.50;2252.80;;;;;;5056064;28;20017;-75
2024/03/15 02:49:23;;;;;;;44.40;27.25;;;256.40;2252.80;;;;;;5054430;28;20021;-75
2024/03/15 02:51:51;;;;;;;50.33;26.55;;;256.30;2252.80;;;;;;5056180;28;20048;-75
2024/03/15 02:54:17;;;;;;;47.83;27.45;;;256.20;2252.80;;;;;;5055773;28;20009;-75
2024/03/15 02:56:43;;;;;;;45.38;26.05;;;256.20;2252.80;;;;;;5055804;28;20021;-76
2024/03/15 02:59:09;;;;;;;43.95;26.95;;;256.30;2252.80;;;;;;5055675;28;20053;-75
2024/03/15 03:01:35;;;;;;;49.95;29.10;;;256.40;2252.80;;;;;;5055535;28;20072;-75
2024/03/15 03:04:01;;;;;;;43.63;27.00;;;256.50;2252.80;;;;;;5055523;28;20025;-75
2024/03/15 03:06:27;;;;;;;46.08;27.30;;;256.60;2252.80;;;;;;5055525;28;20029;-76
2024/03/15 03:08:54;;;;;;;44.50;27.40;;;256.70;2252.80;;;;;;5055335;28;20091;-78
2024/03/15 03:11:20;;;;;;;44.85;26.80;;;256.70;2252.80;;;;;;5055535;28;20373;-75
2024/03/15 03:13:46;;;;;;;46.30;28.33;;;256.70;2252.80;;;;;;5055470;28;20083;-75
2024/03/15 03:16:20;;;;;;;51.03;30.02;;;256.70;2252.80;;;;;;5055485;28;20021;-75
2024/03/15 03:18:47;;;;;;;50.53;29.65;;;256.80;2252.80;;;;;;5055309;28;20033;-75
2024/03/15 03:21:12;;;;;;;48.97;28.95;;;256.90;2252.80;;;;;;5055618;28;20033;-75
2024/03/15 03:23:38;;;;;;;51.40;29.23;;;256.80;2252.80;;;;;;5053742;28;20367;-75
2024/03/15 03:26:05;;;;;;;50.13;28.90;;;256.50;2252.80;;;;;;5054033;28;20025;-75
2024/03/15 03:28:31;;;;;;;46.30;29.08;;;256.50;2252.80;;;;;;5055453;28;20046;-76
2024/03/15 03:30:57;;;;;;;51.72;31.90;;;256.50;2252.80;;;;;;5055392;28;20112;-75
2024/03/15 03:33:25;;;;;;;56.45;32.50;;;256.60;2252.80;;;;;;5055061;28;20021;-75
2024/03/15 03:35:51;;;;;;;49.95;29.02;;;256.60;2252.80;;;;;;5055064;28;20071;-78
2024/03/15 03:38:17;;;;;;;47.10;30.38;;;256.50;2252.80;;;;;;5054199;28;20029;-76
2024/03/15 03:40:42;;;;;;;43.90;28.20;;;256.50;2252.80;;;;;;5054954;28;20082;-75
2024/03/15 03:43:09;;;;;;;49.10;27.98;;;256.50;2252.80;;;;;;5054938;28;20474;-78
2024/03/15 03:45:36;;;;;;;48.17;27.83;;;256.50;2252.80;;;;;;5054919;28;20032;-78
2024/03/15 03:48:03;;;;;;;44.55;30.33;;;256.60;2252.80;;;;;;5052256;28;20025;-75
2024/03/15 03:50:28;;;;;;;53.22;29.75;;;256.60;2252.80;;;;;;5054908;28;20013;-78
2024/03/15 03:52:56;;;;;;;46.90;28.35;;;256.70;2252.80;;;;;;5045266;28;20552;-78
2024/03/15 03:55:22;;;;;;;45.63;28.90;;;256.70;2252.80;;;;;;5029737;28;20044;-75
2024/03/15 03:57:48;;;;;;;46.95;27.95;;;256.70;2252.80;;;;;;5052629;28;20083;-78
2024/03/15 04:00:14;;;;;;;45.50;27.17;;;256.60;2252.80;;;;;;5054661;28;20425;-78
2024/03/15 04:02:50;;;;;;;48.33;28.70;;;256.70;2252.80;;;;;;5054443;28;20017;-75
2024/03/15 04:05:20;;;;;;;48.33;29.80;;;256.60;2252.80;;;;;;5054483;28;20020;-75
2024/03/15 04:07:47;;;;;;;48.63;28.85;;;256.60;2252.80;;;;;;5052833;28;20056;-76
2024/03/15 04:10:14;;;;;;;48.03;27.40;;;256.50;2252.80;;;;;;5054093;28;20036;-75
2024/03/15 04:12:42;;;;;;;47.97;27.80;;;256.50;2252.80;;;;;;5054389;28;20351;-76
2024/03/15 04:15:10;;;;;;;52.58;30.30;;;256.40;2252.80;;;;;;5054265;28;20025;-76
2024/03/15 04:17:36;;;;;;;45.35;28.05;;;256.50;2252.80;;;;;;5053176;28;20036;-75
2024/03/15 04:20:06;;;;;;;49.38;28.98;;;256.50;2252.80;;;;;;5040042;28;20043;-76
2024/03/15 04:22:32;;;;;;;45.65;27.52;;;256.50;2252.80;;;;;;5054336;28;20110;-78
2024/03/15 04:24:59;;;;;;;50.58;29.27;;;256.60;2252.80;;;;;;5053932;28;20045;-76
2024/03/15 04:27:25;;;;;;;44.83;28.27;;;256.70;2252.80;;;;;;5054251;28;20036;-78
2024/03/15 04:29:51;;;;;;;49.95;27.98;;;256.60;2252.80;;;;;;5053936;28;20474;-75
2024/03/15 04:32:19;;;;;;;44.83;27.35;;;256.60;2252.80;;;;;;5054147;28;20029;-75
2024/03/15 04:34:47;;;;;;;47.60;27.83;;;256.40;2252.80;;;;;;5052979;28;20124;-75
2024/03/15 04:37:19;;;;;;;50.70;29.00;;;256.40;2252.80;;;;;;5053840;28;20021;-75
2024/03/15 04:39:45;;;;;;;45.20;26.20;;;256.60;2252.80;;;;;;5052073;28;20029;-75
2024/03/15 04:42:12;;;;;;;44.67;27.08;;;256.50;2252.80;;;;;;5052440;28;20055;-77
2024/03/15 04:44:38;;;;;;;51.92;28.55;;;256.50;2252.80;;;;;;5053653;28;20103;-75
2024/03/15 04:47:06;;;;;;;49.33;28.70;;;256.40;2252.80;;;;;;5053813;28;20124;-75
2024/03/15 04:49:33;;;;;;;56.30;29.65;;;256.40;2252.80;;;;;;5053530;28;20048;-77
2024/03/15 04:51:59;;;;;;;49.58;29.52;;;256.50;2252.80;;;;;;5053572;28;20029;-74
2024/03/15 04:54:25;;;;;;;47.15;28.70;;;256.50;2252.80;;;;;;5050096;28;20027;-75
2024/03/15 04:56:51;;;;;;;48.67;29.80;;;256.30;2252.80;;;;;;5053631;28;20043;-75
2024/03/15 04:59:17;;;;;;;49.10;29.42;;;256.30;2252.80;;;;;;5053185;28;20470;-75
2024/03/15 05:01:43;;;;;;;49.85;28.55;;;256.30;2252.80;;;;;;5043393;28;20036;-77
2024/03/15 05:04:09;;;;;;;51.60;29.08;;;256.20;2252.80;;;;;;5053354;28;20028;-75
2024/03/15 05:06:35;;;;;;;45.85;27.70;;;256.30;2252.80;;;;;;5053211;28;20198;-75
2024/03/15 05:09:02;;;;;;;46.05;29.20;;;256.30;2252.80;;;;;;5053393;28;20517;-75
2024/03/15 05:11:27;;;;;;;45.78;28.38;;;256.40;2252.80;;;;;;5053401;28;20111;-76
2024/03/15 05:13:54;;;;;;;49.10;29.15;;;256.40;2252.80;;;;;;5053222;28;20128;-75
2024/03/15 05:16:20;;;;;;;51.15;29.88;;;256.30;2252.80;;;;;;5053406;28;20041;-78
2024/03/15 05:18:46;;;;;;;50.15;28.98;;;256.20;2252.80;;;;;;5053160;28;20548;-75
2024/03/15 05:21:12;;;;;;;48.58;28.63;;;256.30;2252.80;;;;;;5052013;28;20414;-75
2024/03/15 05:23:38;;;;;;;45.08;28.67;;;256.20;2252.80;;;;;;5053176;28;20017;-78
2024/03/15 05:26:07;;;;;;;52.45;29.02;;;256.30;2252.80;;;;;;5051978;28;20029;-76
2024/03/15 05:28:34;;;;;;;52.83;29.02;;;;;;;;;;5053162;28;20024;-75
2024/03/15 05:31:04;;;;;;;51.03;30.95;;;256.00;2252.80;;;;;;5053250;28;20113;-75
2024/03/15 05:33:34;;;;;;;49.10;31.58;;;256.20;2252.80;;;;;;5053062;28;20088;-75
2024/03/15 05:36:03;;;;;;;48.90;29.02;;;256.10;2252.80;;;;;;5052978;28;20120;-75
2024/03/15 05:38:31;;;;;;;52.88;32.28;;;256.10;2252.80;;;;;;5039808;28;20071;-77
2024/03/15 05:40:58;;;;;;;50.13;30.13;;;256.00;2252.80;;;;;;5052908;28;20128;-75
2024/03/15 05:43:24;;;;;;;51.45;30.92;;;256.10;2252.80;;;;;;5050735;28;20028;-75
2024/03/15 05:45:50;;;;;;;50.75;30.60;;;256.20;2252.80;;;;;;5064055;28;20029;-74
2024/03/15 05:48:16;;;;;;;50.22;31.15;;;256.30;2252.80;;;;;;5069875;28;20025;-76
2024/03/15 05:50:42;;;;;;;47.50;29.33;;;256.30;2252.80;;;;;;5062250;28;20066;-75
2024/03/15 05:53:08;;;;;;;54.33;31.35;;;256.40;2252.80;;;;;;5061654;28;20021;-75
2024/03/15 05:55:34;;;;;;;55.53;32.78;;;256.50;2252.80;;;;;;5063588;28;20032;-77
2024/03/15 05:58:01;;;;;;;54.70;31.95;;;256.60;2252.80;;;;;;5056363;28;20087;-75
2024/03/15 06:00:27;;;;;;;57.13;32.33;;;256.70;2252.80;;;;;;5069488;28;20095;-75
2024/03/15 06:02:53;;;;;;;54.67;30.00;;;256.70;2252.80;;;;;;5072425;28;20025;-77
2024/03/15 06:05:19;;;;;;;47.58;31.52;;;256.90;2252.80;;;;;;5070293;28;20098;-75
2024/03/15 06:07:45;;;;;;;47.80;30.63;;;281.60;2278.40;;;;;;5069251;28;20041;-76
2024/03/15 06:10:13;;;;;;;52.15;31.52;;;281.60;2278.40;;;;;;5071056;28;20058;-75
2024/03/15 06:12:40;;;;;;;58.45;31.42;;;256.80;2252.80;;;;;;5052213;28;20062;-74
2024/03/15 06:15:08;;;;;;;53.55;32.15;;;256.70;2252.80;;;;;;5068265;28;20046;-74
2024/03/15 06:17:34;;;;;;;60.28;33.42;;;256.70;2252.80;;;;;;5031643;28;20048;-75
2024/03/15 06:20:00;;;;;;;51.70;33.03;;;256.80;2252.80;;;;;;5030367;28;20037;-75
2024/03/15 06:22:26;;;;;;;;;;;256.90;2252.80;;;;;;5065049;28;20126;-75
2024/03/15 06:24:52;;;;;;;51.53;31.48;;;256.90;2252.80;;;;;;5069316;28;19954;-75
2024/03/15 06:27:20;;;;;;;;;;;281.60;2278.40;;;;;;5063793;28;20036;-77
2024/03/15 06:29:50;;;;;;;52.80;31.90;;;282.10;2278.40;;;;;;5071579;28;19912;-76
2024/03/15 06:32:17;;;;;;;55.08;34.75;;;281.70;2278.40;;;;;;5048391;28;20047;-74
2024/03/15 06:34:44;;;;;;;56.22;33.70;;;281.80;2278.40;;;;;;5049879;28;20036;-75
2024/03/15 06:37:14;;;;;;;52.50;33.70;;;281.90;2278.40;;;;;;5068330;28;20024;-74
2024/03/15 06:42:35;;;;;;;58.85;33.10;;;282.50;2278.40;;;;;;5069526;28;20025;-78
2024/03/15 06:45:23;;;;;;;59.50;34.35;;;282.50;2278.40;;;;;;5063773;28;20029;-78
2024/03/15 06:48:02;;;;;;;61.60;36.13;;;307.30;2304.00;;;;;;5072411;28;20028;-75
2024/03/15 06:50:47;;;;;;;62.83;35.70;;;307.20;2304.00;;;;;;5050395;28;20031;-74
2024/03/15 06:53:18;;;;;;;59.22;36.75;;;307.30;2304.00;;;;;;5067312;28;20021;-75
2024/03/15 06:55:45;;;;;;;56.92;35.47;;;307.40;2304.00;;;;;;5028088;28;20021;-76
2024/03/15 06:58:12;;;;;;;57.95;34.63;;;307.40;2304.00;;;;;;5068344;28;20115;-78
2024/03/15 07:00:40;;;;;;;56.58;34.13;;;307.50;2304.00;;;;;;5066885;28;20036;-76
2024/03/15 07:03:07;;;;;;;68.50;37.05;;;307.70;2304.00;;;;;;5049832;28;20423;-77
2024/03/15 07:05:33;;;;;;;57.60;34.55;;;307.80;2304.00;;;;;;5033385;28;20033;-76
2024/03/15 07:07:59;;;;;;;62.03;36.10;;;307.80;2304.00;;;;;;5064593;28;20049;-77
2024/03/15 07:10:25;;;;;;;62.72;36.15;;;307.80;2304.00;;;;;;5053840;28;20033;-78
2024/03/15 07:12:51;;;;;;;96.40;37.72;;;307.80;2304.00;;;;;;5035492;28;20033;-75
2024/03/15 07:15:18;;;;;;;54.90;32.35;;;307.90;2304.00;;;;;;5048142;28;20156;-76
2024/03/15 07:17:46;;;;;;;57.00;34.00;;;308.10;2304.00;;;;;;5070826;28;20416;-77
2024/03/15 07:20:12;;;;;;;55.38;34.30;;;308.10;2304.00;;;;;;5045631;28;20151;-79
2024/03/15 07:22:41;;;;;;;47.90;31.80;;;332.90;2329.60;;;;;;5065878;28;20018;-75
2024/03/15 07:25:10;;;;;;;56.70;32.92;;;333.10;2329.60;;;;;;5067028;28;20038;-77
2024/03/15 07:27:37;;;;;;;57.38;32.67;;;333.20;2329.60;;;;;;5047047;28;20029;-77
2024/03/15 07:30:05;;;;;;;51.17;32.53;;;333.40;2329.60;;;;;;5049578;28;20060;-76
2024/03/15 07:32:31;;;;;;;47.80;30.77;;;333.50;2329.60;;;;;;5072039;28;20024;-76
2024/03/15 07:34:57;;;;;;;48.58;30.50;;;333.40;2329.60;;;;;;5072992;28;20145;-76
2024/03/15 07:37:25;;;;;;;47.00;29.27;;;333.30;2329.60;;;;;;5053059;28;20055;-76
2024/03/15 07:39:51;;;;;;;53.55;31.60;;;333.20;2329.60;;;;;;5037124;28;20045;-77
2024/03/15 07:42:19;;;;;;;46.95;30.70;;;333.20;2329.60;;;;;;5073913;28;20021;-76
2024/03/15 07:44:48;;;;;;;47.05;28.67;;;333.30;2329.60;;;;;;5067386;28;20032;-76
2024/03/15 07:47:15;;;;;;;47.45;28.88;;;333.20;2329.60;;;;;;5072562;28;20025;-75
2024/03/15 07:49:41;;;;;;;47.88;28.85;;;333.40;2329.60;;;;;;5040990;28;20033;-76
2024/03/15 07:52:08;;;;;;;46.00;28.00;;;333.50;2329.60;;;;;;5066646;28;20047;-77
2024/03/15 07:54:34;;;;;;;53.35;30.27;;;333.60;2329.60;;;;;;5069536;28;20032;-79
2024/03/15 07:56:59;;;;;;;41.63;29.42;;;358.90;2329.60;;;;;;5071730;28;20024;-79
2024/03/15 07:59:25;;;;;;;44.17;27.15;;;358.90;2329.60;;;;;;5056814;28;20029;-79
2024/03/15 08:01:53;;;;;;;49.60;27.67;;;359.20;2329.60;;;;;;5059567;28;20040;-77
2024/03/15 08:04:19;;;;;;;46.10;27.65;;;384.00;2329.60;;;;;;5049327;28;20040;-78
2024/03/15 08:06:45;;;;;;;42.22;26.63;;;384.10;2329.60;;;;;;5056448;28;20036;-79
2024/03/15 08:09:11;;;;;;;39.78;25.63;;;384.20;2329.60;;;;;;5056465;28;20386;-79
2024/03/15 08:11:37;;;;;;;39.33;23.50;;;384.10;2329.60;;;;;;5036007;28;20041;-78
2024/03/15 08:14:05;;;;;;;37.45;25.33;;;384.30;2329.60;;;;;;5071112;28;20029;-79
2024/03/15 08:16:35;;;;;;;44.28;24.85;;;384.50;2329.60;;;;;;5034282;28;20546;-77
2024/03/15 08:19:06;;;;;;;40.45;24.63;;;384.50;2329.60;;;;;;5066919;28;20478;-77
2024/03/15 08:21:33;;;;;;;42.35;24.30;;;384.60;2329.60;;;;;;5060544;28;20055;-78
2024/03/15 08:24:04;;;;;;;37.22;23.55;;;384.50;2329.60;;;;;;5064613;28;20028;-77
2024/03/15 08:26:31;;;;;;;39.53;22.75;;;384.60;2329.60;;;;;;5041973;28;20033;-78
2024/03/15 08:28:58;;;;;;;37.22;22.77;;;384.70;2329.60;;;;;;5041336;28;20025;-77
2024/03/15 08:31:24;;;;;;;40.13;21.95;;;384.90;2329.60;;;;;;5066319;28;20539;-78
2024/03/15 08:33:50;;;;;;;35.30;21.77;;;384.80;2329.60;;;;;;5052626;28;20075;-78
2024/03/15 08:36:16;;;;;;;42.15;25.23;;;384.70;2329.60;;;;;;5049699;28;20029;-78
2024/03/15 08:38:42;;;;;;;43.17;24.23;;;384.80;2329.60;;;;;;5045562;28;20418;-78
2024/03/15 08:41:09;;;;;;;37.47;22.85;;;384.70;2329.60;;;;;;5028743;28;20060;-77
2024/03/15 08:43:36;;;;;;;47.15;24.73;;;384.80;2329.60;;;;;;5067113;28;20040;-80
2024/03/15 08:46:02;;;;;;;36.00;19.75;;;384.70;2329.60;;;;;;5032896;28;20028;-76
2024/03/15 08:48:30;;;;;;;39.15;21.77;;;384.90;2329.60;;;;;;5062866;28;20021;-76
2024/03/15 08:50:56;;;;;;;41.80;22.67;;;384.90;2329.60;;;;;;5051282;28;20028;-77
2024/03/15 08:53:24;;;;;;;39.97;22.42;;;409.70;2355.20;;;;;;5047199;28;20049;-78
2024/03/15 08:55:52;;;;;;;31.38;19.58;;;409.70;2355.20;;;;;;5041578;28;20492;-77
2024/03/15 08:58:17;;;;;;;33.92;21.58;;;409.90;2355.20;;;;;;5071998;28;20067;-77
2024/03/15 09:00:43;;;;;;;31.70;19.17;;;409.90;2176.00;;;;;;5058363;28;20075;-77
2024/03/15 09:03:09;;;;;;;29.77;17.63;;;410.00;2278.40;;;;;;5065461;28;20100;-77
2024/03/15 09:05:39;;;;;;;32.15;18.90;;;410.10;2150.40;;;;;;5066111;28;20075;-80
2024/03/15 09:08:06;;;;;;;28.60;18.00;;;410.10;2227.20;;;;;;5042819;28;20513;-77
2024/03/15 09:10:33;;;;;;;31.95;17.50;;;410.10;2099.20;;;;;;5040568;28;20033;-78
2024/03/15 09:13:00;;;;;;;23.67;14.70;;;409.90;2150.40;;;;;;5045396;28;20118;-79
2024/03/15 09:15:26;;;;;;;25.33;13.90;;;410.10;2099.20;;;;;;5063674;28;20497;-79
2024/03/15 09:17:53;;;;;;;28.50;15.23;;;410.10;1945.60;;;;;;5045190;28;20041;-78
2024/03/15 09:20:32;;;;;;;27.05;16.15;;;410.20;2073.60;;;;;;5063593;28;20079;-78
2024/03/15 09:22:58;;;;;;;28.75;15.15;;;410.40;1996.80;;;;;;5045731;28;20063;-77
2024/03/15 09:25:32;;;;;;;29.65;15.70;;;410.20;1920.00;;;;;;5060190;28;20087;-79
2024/03/15 09:27:59;;;;;;;26.13;15.48;;;410.50;1894.40;;;;;;5032354;28;20048;-77
2024/03/15 09:30:29;;;;;;;24.52;14.27;;;435.20;1868.80;;;;;;5053628;28;20531;-78
2024/03/15 09:32:59;;;;;;;21.73;13.88;;;435.30;1971.20;;;;;;5044003;28;20029;-76
2024/03/15 09:35:25;;;;;;;24.27;13.93;;;435.30;1920.00;;;;;;5031455;28;20028;-77
2024/03/15 09:37:51;;;;;;;29.73;15.05;;;435.40;1817.60;;;;;;5048623;28;20508;-79
2024/03/15 09:40:24;;;;;;;24.80;14.55;;;435.30;1894.40;;;;;;5052607;28;20040;-77
2024/03/15 09:42:52;;;;;;;21.08;13.18;;;435.40;1894.40;;;;;;5054897;28;20029;-77
2024/03/15 09:45:21;;;;;;;25.85;14.05;;;460.90;1766.40;;;;;;5042886;28;20363;-78
2024/03/15 09:47:51;;;;;;;24.70;14.60;;;461.70;1664.00;;;;;;5064266;28;20120;-78
2024/03/15 09:50:21;;;;;;;21.63;14.25;;;461.50;1612.80;;;;;;5064777;28;20036;-76
2024/03/15 09:52:49;;;;;;;23.52;14.75;;;461.60;1638.40;;;;;;5043277;28;20078;-77
2024/03/15 09:55:19;;;;;;;23.50;14.35;;;461.40;1612.80;;;;;;5051106;28;20036;-77
2024/03/15 09:57:46;;;;;;;23.10;13.95;;;461.70;1561.60;;;;;;5034408;28;20021;-78
2024/03/15 10:00:23;;;;;;;26.25;15.30;;;461.70;1587.20;;;;;;5025503;28;20048;-78
2024/03/15 10:02:52;;;;;;;24.27;13.55;;;461.30;1689.60;;;;;;5049390;28;20029;-78
2024/03/15 10:05:22;;;;;;;28.50;15.27;;;461.40;1664.00;;;;;;5026495;28;20033;-79
2024/03/15 10:07:48;;;;;;;22.92;14.80;;;461.40;1612.80;;;;;;5048480;28;20141;-77
2024/03/15 10:10:16;;;;;;;28.05;14.63;;;461.40;1638.40;;;;;;5069721;28;20036;-77
2024/03/15 10:12:44;;;;;;;15.80;9.77;;;461.50;1664.00;;;;;;5072037;28;20086;-78
2024/03/15 10:15:12;;;;;;;16.48;10.55;;;461.70;1536.00;;;;;;5062437;28;20486;-78
2024/03/15 10:17:43;;;;;;;14.60;9.80;;;486.40;1484.80;;;;;;5045618;28;20032;-76
2024/03/15 10:20:15;;;;;;;19.08;9.77;;;486.70;1382.40;;;;;;5048807;28;20473;-78
2024/03/15 10:22:42;;;;;;;19.42;11.15;;;487.00;1382.40;;;;;;5050415;28;20028;-78
2024/03/15 10:25:15;;;;;;;21.00;11.10;;;487.20;1433.60;;;;;;5065675;28;20067;-78
2024/03/15 10:28:00;;;;;;;18.38;12.18;;;487.10;1356.80;;;;;;5053365;28;20031;-77
2024/03/15 10:30:28;;;;;;;19.42;12.20;;;487.30;1408.00;;;;;;5052434;28;20032;-77
2024/03/15 10:33:03;;;;;;;17.60;11.07;;;487.30;1408.00;;;;;;5061627;28;20029;-78
2024/03/15 10:35:29;;;;;;;17.85;10.90;;;487.10;1382.40;;;;;;5040628;28;20071;-79
2024/03/15 10:37:55;;;;;;;18.92;11.63;;;486.90;1408.00;;;;;;5050356;28;20032;-79
2024/03/15 10:40:23;;;;;;;17.67;12.10;;;486.90;1408.00;;;;;;5059879;28;20032;-78
2024/03/15 10:42:51;;;;;;;16.52;10.65;;;486.80;1408.00;;;;;;5036238;28;20040;-79
2024/03/15 10:45:23;;;;;;;14.35;9.68;;;486.90;1382.40;;;;;;5035190;28;20099;-78
2024/03/15 10:47:49;;;;;;;17.52;10.30;;;487.00;1382.40;;;;;;5042496;28;20135;-78
2024/03/15 10:50:34;;;;;;;15.07;8.85;;;486.80;1408.00;;;;;;5062123;28;20047;-79
2024/03/15 10:53:05;;;;;;;16.52;9.90;;;487.10;1356.80;;;;;;5069683;28;20054;-79
2024/03/15 10:55:31;;;;;;;17.65;9.68;;;487.30;1356.80;;;;;;5042516;28;20025;-78
2024/03/15 10:57:59;;;;;;;18.50;11.27;;;487.10;1305.60;;;;;;5071279;28;20366;-77
2024/03/15 11:00:28;;;;;;;15.23;9.45;;;487.30;1305.60;;;;;;5050136;28;20033;-78
2024/03/15 11:02:55;;;;;;;14.93;10.85;;;512.60;1305.60;;;;;;5049724;28;20037;-79
2024/03/15 11:05:26;;;;;;;14.15;9.95;;;512.30;1280.00;;;;;;5061528;28;20043;-78
2024/03/15 11:08:11;;;;;;;18.58;10.82;;;512.00;1280.00;;;;;;5066411;28;20056;-77
2024/03/15 11:10:38;;;;;;;26.40;10.07;;;512.50;1280.00;;;;;;5046637;28;20533;-77
2024/03/15 11:13:05;;;;;;;14.25;8.70;;;512.20;1305.60;;;;;;5055217;28;20624;-78
2024/03/15 11:15:35;;;;;;;18.83;10.23;;;512.70;1228.80;;;;;;5052093;28;20035;-79
2024/03/15 11:18:08;;;;;;;13.32;9.02;;;512.40;1280.00;;;;;;5042961;28;20031;-78
2024/03/15 11:20:45;;;;;;;18.42;10.25;;;512.00;1331.20;;;;;;5050284;28;20032;-79
2024/03/15 11:23:12;;;;;;;16.85;10.00;;;487.30;1356.80;;;;;;5050912;28;20028;-79
2024/03/15 11:25:38;;;;;;;12.65;8.88;;;487.30;1305.60;;;;;;5060365;28;20033;-80
2024/03/15 11:28:04;;;;;;;14.50;8.55;;;487.30;1280.00;;;;;;5035029;28;20044;-77
2024/03/15 11:30:31;;;;;;;15.45;9.23;;;512.60;1254.40;;;;;;5062213;28;20069;-79
2024/03/15 11:32:57;;;;;;;17.02;10.02;;;512.20;1254.40;;;;;;5034810;28;20576;-79
2024/03/15 11:35:23;;;;;;;15.57;9.13;;;512.20;1254.40;;;;;;5062525;28;20025;-78
2024/03/15 11:37:55;;;;;;;17.45;10.80;;;512.20;1331.20;;;;;;5045991;28;20025;-76
2024/03/15 11:40:24;;;;;;;17.88;10.48;;;512.50;1305.60;;;;;;5052389;28;20053;-77
2024/03/15 11:42:50;;;;;;;14.43;10.00;;;512.00;1305.60;;;;;;5053554;28;20469;-77
2024/03/15 11:45:17;;;;;;;14.55;9.73;;;487.10;1331.20;;;;;;5060627;28;20020;-79
2024/03/15 11:47:44;;;;;;;16.67;9.95;;;487.10;1305.60;;;;;;5046922;28;20451;-77
2024/03/15 11:50:15;;;;;;;15.90;10.43;;;487.20;1382.40;;;;;;5057534;28;20024;-77
2024/03/15 11:52:43;;;;;;;16.65;10.98;;;486.90;1382.40;;;;;;5036714;28;20024;-79
2024/03/15 11:55:17;;;;;;;15.00;9.40;;;486.60;1382.40;;;;;;5046864;28;20036;-78
2024/03/15 11:57:43;;;;;;;17.95;10.88;;;486.50;1408.00;;;;;;5037370;28;20051;-76
2024/03/15 12:00:16;;;;;;;16.73;10.18;;;461.40;1433.60;;;;;;5047712;28;20041;-77
2024/03/15 12:02:41;;;;;;;15.32;10.48;;;461.30;1433.60;;;;;;5055185;28;20036;-79
2024/03/15 12:05:12;;;;;;;23.85;10.70;;;461.10;1433.60;;;;;;5051951;28;20029;-77